createdAt,value
2023-03-19T00:00:29.190Z,35.13
2023-03-19T00:02:57.267Z,39.10
2023-03-19T00:05:24.020Z,33.55
2023-03-19T00:07:51.090Z,34.83
2023-03-19T00:10:18.165Z,36.03
2023-03-19T00:12:46.828Z,33.50
2023-03-19T00:15:14.720Z,31.30
2023-03-19T00:17:43.075Z,30.52
2023-03-19T00:20:11.888Z,31.70
2023-03-19T00:22:39.768Z,30.80
2023-03-19T00:25:08.192Z,28.48
2023-03-19T00:27:35.485Z,26.95
2023-03-19T00:30:02.536Z,25.75
2023-03-19T00:32:30.066Z,27.92
2023-03-19T00:34:59.841Z,31.10
2023-03-19T00:37:26.539Z,25.88
2023-03-19T00:39:53.170Z,33.08
2023-03-19T00:42:19.981Z,30.27
2023-03-19T00:44:47.275Z,35.00
2023-03-19T00:47:13.950Z,27.27
2023-03-19T00:49:40.650Z,29.73
2023-03-19T00:52:07.851Z,33.28
2023-03-19T00:54:34.613Z,28.63
2023-03-19T00:57:02.031Z,45.22
2023-03-19T00:59:28.836Z,36.85
2023-03-19T01:01:56.485Z,38.95
2023-03-19T01:04:23.258Z,34.63
2023-03-19T01:06:50.118Z,39.67
2023-03-19T01:09:16.800Z,29.20
2023-03-19T01:11:43.536Z,30.98
2023-03-19T01:14:10.150Z,30.00
2023-03-19T01:16:36.989Z,33.13
2023-03-19T01:19:04.255Z,31.70
2023-03-19T01:21:31.113Z,29.65
2023-03-19T01:23:58.594Z,30.00
2023-03-19T01:26:27.390Z,30.77
2023-03-19T01:28:58.934Z,27.50
2023-03-19T01:31:27.126Z,29.42
2023-03-19T01:34:21.581Z,24.45
2023-03-19T01:36:52.643Z,26.02
2023-03-19T01:39:27.681Z,28.80
2023-03-19T01:41:55.171Z,21.45
2023-03-19T01:44:38.834Z,23.75
2023-03-19T01:47:33.311Z,25.55
2023-03-19T01:50:25.878Z,18.33
2023-03-19T01:53:07.829Z,23.02
2023-03-19T01:55:48.698Z,30.05
2023-03-19T01:58:31.267Z,22.55
2023-03-19T02:01:15.381Z,23.73
2023-03-19T02:03:46.632Z,21.15
2023-03-19T02:06:20.010Z,25.20
2023-03-19T02:08:47.812Z,23.20
2023-03-19T02:11:14.655Z,22.88
2023-03-19T02:13:41.576Z,22.83
2023-03-19T02:16:08.655Z,28.05
2023-03-19T02:18:36.525Z,28.02
2023-03-19T02:21:09.700Z,19.98
2023-03-19T02:23:56.336Z,28.17
2023-03-19T02:26:41.832Z,23.33
2023-03-19T02:29:08.594Z,32.65
2023-03-19T02:31:37.569Z,35.35
2023-03-19T02:34:14.237Z,35.85
2023-03-19T02:36:47.337Z,36.63
2023-03-19T02:39:43.525Z,33.08
2023-03-19T02:42:11.771Z,30.45
2023-03-19T02:44:38.498Z,29.17
2023-03-19T02:47:05.753Z,27.33
2023-03-19T02:49:32.414Z,24.95
2023-03-19T02:52:00.727Z,27.42
2023-03-19T02:54:27.432Z,22.50
2023-03-19T02:56:54.226Z,28.25
2023-03-19T02:59:21.508Z,23.83
2023-03-19T03:01:48.553Z,25.20
2023-03-19T03:04:16.701Z,22.67
2023-03-19T03:06:44.384Z,23.88
2023-03-19T03:09:12.685Z,26.40
2023-03-19T03:11:41.667Z,22.42
2023-03-19T03:14:08.912Z,24.90
2023-03-19T03:16:35.921Z,27.13
2023-03-19T03:19:02.617Z,21.45
2023-03-19T03:21:29.590Z,24.60
2023-03-19T03:23:56.382Z,20.10
2023-03-19T03:26:23.163Z,24.70
2023-03-19T03:28:49.916Z,20.25
2023-03-19T03:31:16.832Z,19.98
2023-03-19T03:33:43.613Z,19.35
2023-03-19T03:36:10.605Z,20.35
2023-03-19T03:38:37.273Z,24.02
2023-03-19T03:41:04.735Z,25.60
2023-03-19T03:43:31.412Z,21.30
2023-03-19T03:45:58.867Z,19.52
2023-03-19T03:48:25.956Z,27.70
2023-03-19T03:50:52.679Z,23.30
2023-03-19T03:53:23.960Z,19.45
2023-03-19T03:55:51.212Z,20.58
2023-03-19T03:58:21.889Z,17.45
2023-03-19T04:00:48.556Z,17.42
2023-03-19T04:03:15.501Z,21.15
2023-03-19T04:05:42.275Z,18.77
2023-03-19T04:08:09.580Z,18.17
2023-03-19T04:10:39.907Z,22.65
2023-03-19T04:13:06.599Z,20.10
2023-03-19T04:15:33.226Z,20.67
2023-03-19T04:18:00.374Z,19.13
2023-03-19T04:20:27.183Z,25.90
2023-03-19T04:22:53.799Z,16.88
2023-03-19T04:25:20.551Z,17.15
2023-03-19T04:27:47.296Z,15.82
2023-03-19T04:30:14.513Z,15.90
2023-03-19T04:32:41.710Z,15.20
2023-03-19T04:35:08.901Z,15.20
2023-03-19T04:37:35.588Z,14.18
2023-03-19T04:40:02.306Z,15.50
2023-03-19T04:42:32.996Z,11.90
2023-03-19T04:45:07.996Z,18.23
2023-03-19T04:47:35.320Z,18.00
2023-03-19T04:50:02.851Z,14.38
2023-03-19T04:52:33.394Z,11.60
2023-03-19T04:55:00.925Z,12.98
2023-03-19T04:57:28.260Z,11.00
2023-03-19T04:59:56.487Z,12.18
2023-03-19T05:02:23.771Z,11.20
2023-03-19T05:04:51.239Z,12.00
2023-03-19T05:07:18.077Z,12.30
2023-03-19T05:09:46.351Z,12.05
2023-03-19T05:12:14.559Z,15.05
2023-03-19T05:14:46.479Z,15.48
2023-03-19T05:17:29.072Z,11.45
2023-03-19T05:20:18.155Z,12.90
2023-03-19T05:22:53.078Z,11.98
2023-03-19T05:25:21.563Z,14.27
2023-03-19T05:27:48.474Z,15.18
2023-03-19T05:30:21.045Z,13.68
2023-03-19T05:32:53.791Z,11.70
2023-03-19T05:35:30.700Z,13.50
2023-03-19T05:37:58.237Z,16.20
2023-03-19T05:40:25.479Z,14.70
2023-03-19T05:42:56.685Z,13.52
2023-03-19T05:45:25.954Z,14.80
2023-03-19T05:47:55.607Z,15.73
2023-03-19T05:50:22.426Z,11.23
2023-03-19T05:53:11.609Z,12.38
2023-03-19T05:55:43.119Z,9.68
2023-03-19T05:58:11.247Z,9.70
2023-03-19T06:00:38.137Z,9.85
2023-03-19T06:03:04.973Z,10.77
2023-03-19T06:05:38.875Z,9.88
2023-03-19T06:08:21.585Z,9.52
2023-03-19T06:11:06.847Z,15.13
2023-03-19T06:13:34.747Z,20.98
2023-03-19T06:16:07.895Z,21.33
2023-03-19T06:18:38.316Z,13.13
2023-03-19T06:21:09.139Z,9.85
2023-03-19T06:23:36.010Z,11.00
2023-03-19T06:26:05.846Z,8.88
2023-03-19T06:28:41.307Z,9.80
2023-03-19T06:31:08.632Z,5.78
2023-03-19T06:34:08.434Z,8.35
2023-03-19T06:36:40.659Z,7.82
2023-03-19T06:39:10.241Z,9.27
2023-03-19T06:41:37.249Z,6.00
2023-03-19T06:44:16.909Z,6.68
2023-03-19T06:46:43.707Z,7.40
2023-03-19T06:49:10.365Z,5.43
2023-03-19T06:51:37.088Z,10.65
2023-03-19T06:54:03.786Z,8.13
2023-03-19T06:56:30.415Z,5.25
2023-03-19T06:58:56.998Z,6.75
2023-03-19T07:01:23.968Z,5.28
2023-03-19T07:03:51.221Z,5.85
2023-03-19T07:06:17.891Z,4.43
2023-03-19T07:08:46.499Z,6.82
2023-03-19T07:11:14.046Z,5.13
2023-03-19T07:13:41.062Z,6.43
2023-03-19T07:16:08.756Z,4.38
2023-03-19T07:18:35.820Z,9.88
2023-03-19T07:21:02.562Z,6.10
2023-03-19T07:23:29.293Z,7.53
2023-03-19T07:25:55.897Z,6.18
2023-03-19T07:28:23.010Z,6.18
2023-03-19T07:30:52.110Z,7.68
2023-03-19T07:33:19.038Z,6.15
2023-03-19T07:35:45.855Z,9.48
2023-03-19T07:38:12.620Z,6.03
2023-03-19T07:40:43.370Z,4.60
2023-03-19T07:43:12.319Z,8.00
2023-03-19T07:45:38.940Z,6.93
2023-03-19T07:48:05.952Z,5.80
2023-03-19T07:50:33.206Z,7.70
2023-03-19T07:52:59.926Z,6.28
2023-03-19T07:55:26.937Z,6.35
2023-03-19T07:57:53.751Z,7.22
2023-03-19T08:00:20.677Z,4.13
2023-03-19T08:02:47.380Z,6.53
2023-03-19T08:05:14.681Z,5.65
2023-03-19T08:07:41.433Z,7.40
2023-03-19T08:10:08.781Z,3.63
2023-03-19T08:12:40.909Z,6.68
2023-03-19T08:15:09.733Z,6.60
2023-03-19T08:17:38.339Z,4.72
2023-03-19T08:20:12.915Z,8.05
2023-03-19T08:22:40.549Z,5.47
2023-03-19T08:25:07.887Z,5.03
2023-03-19T08:27:36.067Z,6.43
2023-03-19T08:30:05.488Z,4.82
2023-03-19T08:32:32.191Z,5.25
2023-03-19T08:34:58.891Z,4.57
2023-03-19T08:37:25.605Z,5.60
2023-03-19T08:39:52.279Z,7.57
2023-03-19T08:42:19.692Z,6.65
2023-03-19T08:44:46.307Z,5.75
2023-03-19T08:47:13.344Z,4.43
2023-03-19T08:49:40.001Z,6.25
2023-03-19T08:52:07.643Z,10.18
2023-03-19T08:54:34.594Z,5.72
2023-03-19T08:57:01.375Z,4.30
2023-03-19T08:59:28.396Z,6.90
2023-03-19T09:01:55.101Z,8.05
2023-03-19T09:04:22.229Z,7.90
2023-03-19T09:06:52.196Z,9.10
2023-03-19T09:09:21.532Z,6.38
2023-03-19T09:11:48.709Z,7.35
2023-03-19T09:14:23.140Z,7.38
2023-03-19T09:16:50.607Z,8.50
2023-03-19T09:19:17.411Z,7.70
2023-03-19T09:21:44.841Z,9.32
2023-03-19T09:24:11.573Z,9.82
2023-03-19T09:26:38.272Z,6.07
2023-03-19T09:29:05.022Z,7.88
2023-03-19T09:31:31.775Z,6.68
2023-03-19T09:33:58.427Z,10.48
2023-03-19T09:36:25.526Z,7.10
2023-03-19T09:38:52.511Z,7.43
2023-03-19T09:41:40.075Z,8.95
2023-03-19T09:44:35.051Z,8.10
2023-03-19T09:47:29.156Z,9.02
2023-03-19T09:50:11.856Z,10.05
2023-03-19T09:52:48.682Z,7.43
2023-03-19T09:55:24.366Z,7.10
2023-03-19T09:57:53.348Z,7.88
2023-03-19T10:00:36.754Z,7.28
2023-03-19T10:03:25.673Z,6.32
2023-03-19T10:06:10.949Z,7.80
2023-03-19T10:09:15.332Z,6.30
2023-03-19T10:11:50.374Z,6.57
2023-03-19T10:14:44.587Z,6.63
2023-03-19T10:17:19.950Z,8.90
2023-03-19T10:19:49.537Z,6.55
2023-03-19T10:22:22.338Z,5.95
2023-03-19T10:24:50.389Z,6.05
2023-03-19T10:27:19.854Z,5.32
2023-03-19T10:29:47.010Z,6.70
2023-03-19T10:32:26.112Z,5.57
2023-03-19T10:34:55.848Z,6.63
2023-03-19T10:37:28.508Z,6.22
2023-03-19T10:40:00.206Z,5.38
2023-03-19T10:42:51.627Z,4.97
2023-03-19T10:45:21.949Z,5.72
2023-03-19T10:47:48.586Z,4.45
2023-03-19T10:50:18.187Z,9.95
2023-03-19T10:52:46.301Z,4.70
2023-03-19T10:55:19.343Z,4.78
2023-03-19T10:57:49.742Z,6.68
2023-03-19T11:00:19.299Z,4.95
2023-03-19T11:02:48.771Z,5.03
2023-03-19T11:05:18.176Z,4.95
2023-03-19T11:07:52.404Z,4.18
2023-03-19T11:10:19.921Z,3.85
2023-03-19T11:12:52.074Z,4.90
2023-03-19T11:15:22.353Z,3.97
2023-03-19T11:18:00.439Z,4.72
2023-03-19T11:20:50.512Z,3.55
2023-03-19T11:23:17.955Z,5.80
2023-03-19T11:25:52.641Z,5.78
2023-03-19T11:28:26.370Z,3.85
2023-03-19T11:31:42.075Z,2.65
2023-03-19T11:34:30.568Z,3.53
2023-03-19T11:37:05.232Z,4.38
2023-03-19T11:39:55.235Z,3.30
2023-03-19T11:42:46.592Z,3.40
2023-03-19T11:45:34.821Z,3.50
2023-03-19T11:48:34.037Z,6.05
2023-03-19T11:51:15.382Z,4.05
2023-03-19T11:54:00.973Z,3.78
2023-03-19T11:56:36.809Z,7.07
2023-03-19T11:59:12.670Z,6.65
2023-03-19T12:01:49.618Z,4.93
2023-03-19T12:04:22.311Z,5.95
2023-03-19T12:07:23.365Z,6.57
2023-03-19T12:10:07.703Z,4.47
2023-03-19T12:12:41.369Z,5.47
2023-03-19T12:15:23.166Z,6.43
2023-03-19T12:18:06.656Z,5.13
2023-03-19T12:20:48.425Z,6.40
2023-03-19T12:23:35.931Z,4.97
2023-03-19T12:26:05.985Z,4.53
2023-03-19T12:28:42.516Z,5.22
2023-03-19T12:31:33.500Z,5.30
2023-03-19T12:34:27.171Z,5.95
2023-03-19T12:37:18.854Z,6.57
2023-03-19T12:39:53.357Z,7.68
2023-03-19T12:42:21.333Z,6.70
2023-03-19T12:44:52.965Z,11.35
2023-03-19T12:47:34.432Z,6.90
2023-03-19T12:50:04.580Z,10.65
2023-03-19T12:52:37.940Z,7.25
2023-03-19T12:55:22.967Z,8.02
2023-03-19T12:58:01.643Z,7.78
2023-03-19T13:00:49.901Z,7.97
2023-03-19T13:03:22.545Z,5.68
2023-03-19T13:06:01.862Z,5.97
2023-03-19T13:08:43.042Z,4.78
2023-03-19T13:11:15.163Z,2.30
2023-03-19T13:13:53.360Z,6.38
2023-03-19T13:16:38.659Z,3.97
2023-03-19T13:19:36.777Z,1.60
2023-03-19T13:22:07.433Z,1.40
2023-03-19T13:24:39.043Z,2.03
2023-03-19T13:27:07.825Z,1.42
2023-03-19T13:29:37.142Z,1.23
2023-03-19T13:32:10.302Z,1.30
2023-03-19T13:34:37.854Z,1.30
2023-03-19T13:37:17.129Z,3.35
2023-03-19T13:39:48.397Z,1.40
2023-03-19T13:42:34.183Z,3.40
2023-03-19T13:45:21.660Z,1.95
2023-03-19T13:47:59.515Z,2.85
2023-03-19T13:50:28.941Z,4.50
2023-03-19T13:53:31.237Z,3.20
2023-03-19T13:55:59.537Z,4.95
2023-03-19T13:58:48.680Z,3.60
2023-03-19T14:01:30.262Z,3.78
2023-03-19T14:04:07.095Z,4.13
2023-03-19T14:06:40.866Z,3.63
2023-03-19T14:09:31.527Z,4.13
2023-03-19T14:12:23.041Z,5.75
2023-03-19T14:14:52.849Z,4.85
2023-03-19T14:17:26.221Z,4.70
2023-03-19T14:19:54.345Z,7.65
2023-03-19T14:22:32.784Z,6.03
2023-03-19T14:25:17.609Z,7.18
2023-03-19T14:28:09.467Z,8.30
2023-03-19T14:30:44.848Z,9.13
2023-03-19T14:33:20.474Z,10.85
2023-03-19T14:35:48.456Z,10.68
2023-03-19T14:38:26.332Z,12.82
2023-03-19T14:40:53.175Z,11.65
2023-03-19T14:43:57.537Z,7.90
2023-03-19T14:46:30.108Z,6.07
2023-03-19T14:49:12.008Z,5.28
2023-03-19T14:51:54.670Z,4.47
2023-03-19T14:54:36.316Z,4.53
2023-03-19T14:57:07.763Z,4.38
2023-03-19T14:59:40.961Z,6.18
2023-03-19T15:02:32.292Z,4.13
2023-03-19T15:05:00.829Z,6.45
2023-03-19T15:07:33.633Z,4.30
2023-03-19T15:10:06.302Z,4.78
2023-03-19T15:12:56.278Z,3.25
2023-03-19T15:15:56.210Z,4.20
2023-03-19T15:18:24.968Z,3.25
2023-03-19T15:20:55.578Z,3.95
2023-03-19T15:23:27.902Z,3.85
2023-03-19T15:26:01.476Z,3.08
2023-03-19T15:28:31.144Z,3.97
2023-03-19T15:31:21.698Z,3.70
2023-03-19T15:33:50.961Z,3.28
2023-03-19T15:36:19.482Z,4.05
2023-03-19T15:38:58.764Z,4.10
2023-03-19T15:41:27.187Z,4.30
2023-03-19T15:43:56.286Z,4.00
2023-03-19T15:46:26.065Z,3.13
2023-03-19T15:49:21.966Z,3.15
2023-03-19T15:51:51.647Z,7.75
2023-03-19T15:54:19.024Z,2.75
2023-03-19T15:56:46.380Z,4.20
2023-03-19T15:59:13.077Z,3.13
2023-03-19T16:01:39.826Z,3.85
2023-03-19T16:04:08.876Z,1.90
2023-03-19T16:06:39.764Z,3.63
2023-03-19T16:09:14.031Z,2.85
2023-03-19T16:11:46.181Z,8.13
2023-03-19T16:14:19.538Z,4.32
2023-03-19T16:16:47.342Z,3.63
2023-03-19T16:19:33.929Z,3.58
2023-03-19T16:22:01.538Z,3.78
2023-03-19T16:24:36.121Z,3.15
2023-03-19T16:27:07.126Z,5.38
2023-03-19T16:29:42.597Z,4.82
2023-03-19T16:32:20.604Z,2.28
2023-03-19T16:34:55.956Z,4.18
2023-03-19T16:37:37.981Z,4.50
2023-03-19T16:40:13.704Z,4.40
2023-03-19T16:42:46.947Z,6.15
2023-03-19T16:45:14.557Z,4.22
2023-03-19T16:48:03.490Z,6.75
2023-03-19T16:50:38.073Z,4.63
2023-03-19T16:53:21.806Z,5.75
2023-03-19T16:55:48.698Z,6.15
2023-03-19T16:58:17.806Z,5.63
2023-03-19T17:00:44.941Z,5.63
2023-03-19T17:03:16.934Z,5.40
2023-03-19T17:05:45.706Z,5.05
2023-03-19T17:08:13.524Z,5.85
2023-03-19T17:10:44.099Z,7.43
2023-03-19T17:13:16.704Z,4.85
2023-03-19T17:18:26.844Z,7.95
2023-03-19T17:20:57.485Z,8.38
2023-03-19T17:23:26.963Z,5.97
2023-03-19T17:25:54.592Z,6.65
2023-03-19T17:28:21.418Z,5.57
2023-03-19T17:30:48.427Z,4.85
2023-03-19T17:33:23.489Z,5.47
2023-03-19T17:35:51.555Z,5.88
2023-03-19T17:38:19.592Z,6.50
2023-03-19T17:40:47.647Z,5.30
2023-03-19T17:43:14.604Z,8.23
2023-03-19T17:45:47.913Z,5.70
2023-03-19T17:48:26.930Z,6.82
2023-03-19T17:50:58.718Z,8.88
2023-03-19T17:53:25.527Z,10.50
2023-03-19T17:55:52.360Z,10.02
2023-03-19T17:58:22.838Z,10.40
2023-03-19T18:00:51.927Z,6.82
2023-03-19T18:03:21.608Z,7.55
2023-03-19T18:05:50.544Z,9.55
2023-03-19T18:08:19.931Z,8.50
2023-03-19T18:10:46.958Z,7.07
2023-03-19T18:13:14.110Z,6.85
2023-03-19T18:15:42.806Z,7.72
2023-03-19T18:18:19.068Z,8.60
2023-03-19T18:20:47.352Z,6.75
2023-03-19T18:23:16.431Z,9.10
2023-03-19T18:25:46.628Z,6.97
2023-03-19T18:28:13.439Z,6.22
2023-03-19T18:30:41.784Z,7.72
2023-03-19T18:33:14.157Z,5.38
2023-03-19T18:35:42.293Z,5.35
2023-03-19T18:38:17.905Z,5.78
2023-03-19T18:40:45.890Z,5.88
2023-03-19T18:43:15.486Z,6.63
2023-03-19T18:45:44.053Z,9.63
2023-03-19T18:48:28.206Z,8.05
2023-03-19T18:50:55.985Z,10.40
2023-03-19T18:53:23.713Z,12.05
2023-03-19T18:55:51.472Z,9.50
2023-03-19T18:58:30.166Z,9.68
2023-03-19T19:00:58.067Z,10.32
2023-03-19T19:03:29.534Z,8.60
2023-03-19T19:05:56.315Z,7.65
2023-03-19T19:08:25.286Z,9.90
2023-03-19T19:10:54.316Z,8.85
2023-03-19T19:13:28.500Z,12.27
2023-03-19T19:15:55.448Z,12.10
2023-03-19T19:18:25.348Z,13.25
2023-03-19T19:20:53.127Z,10.57
2023-03-19T19:23:21.311Z,10.40
2023-03-19T19:25:51.068Z,12.52
2023-03-19T19:28:21.325Z,11.98
2023-03-19T19:30:49.698Z,11.30
2023-03-19T19:33:21.753Z,12.65
2023-03-19T19:35:49.441Z,10.00
2023-03-19T19:38:16.392Z,9.68
2023-03-19T19:40:44.488Z,10.90
2023-03-19T19:43:18.218Z,8.18
2023-03-19T19:45:46.699Z,8.88
2023-03-19T19:48:16.855Z,10.32
2023-03-19T19:50:45.026Z,12.38
2023-03-19T19:53:12.087Z,16.20
2023-03-19T19:55:39.404Z,10.27
2023-03-19T19:58:08.673Z,12.75
2023-03-19T20:00:35.710Z,11.23
2023-03-19T20:03:02.489Z,10.88
2023-03-19T20:05:31.921Z,15.95
2023-03-19T20:08:00.572Z,15.10
2023-03-19T20:10:29.866Z,15.63
2023-03-19T20:13:01.372Z,16.45
2023-03-19T20:15:34.509Z,17.92
2023-03-19T20:18:02.561Z,15.05
2023-03-19T20:20:35.047Z,12.98
2023-03-19T20:23:02.318Z,15.95
2023-03-19T20:25:34.826Z,15.05
2023-03-19T20:28:02.282Z,19.55
2023-03-19T20:30:35.628Z,15.77
2023-03-19T20:33:03.749Z,13.20
2023-03-19T20:35:33.374Z,17.23
2023-03-19T20:38:01.229Z,16.77
2023-03-19T20:40:51.974Z,17.45
2023-03-19T20:43:29.696Z,19.98
2023-03-19T20:45:58.224Z,21.63
2023-03-19T20:48:26.230Z,22.40
2023-03-19T20:50:53.904Z,20.85
2023-03-19T20:53:20.982Z,21.73
2023-03-19T20:55:48.382Z,23.23
2023-03-19T20:58:35.410Z,17.17
2023-03-19T21:01:02.865Z,24.77
2023-03-19T21:03:31.504Z,20.75
2023-03-19T21:06:01.990Z,23.00
2023-03-19T21:08:34.992Z,22.17
2023-03-19T21:11:02.000Z,28.52
2023-03-19T21:13:28.907Z,28.70
2023-03-19T21:15:55.815Z,23.67
2023-03-19T21:18:22.544Z,27.10
2023-03-19T21:20:53.879Z,27.70
2023-03-19T21:23:31.681Z,32.17
2023-03-19T21:25:59.589Z,28.80
2023-03-19T21:28:32.989Z,26.13
2023-03-19T21:31:00.530Z,28.73
2023-03-19T21:33:29.892Z,32.13
2023-03-19T21:35:57.259Z,25.95
2023-03-19T21:38:24.431Z,31.73
2023-03-19T21:40:54.061Z,29.58
2023-03-19T21:43:31.450Z,32.95
2023-03-19T21:45:58.203Z,31.58
2023-03-19T21:48:27.029Z,31.25
2023-03-19T21:50:54.343Z,32.78
2023-03-19T21:53:21.637Z,31.95
2023-03-19T21:55:51.261Z,26.05
2023-03-19T21:58:23.551Z,31.02
2023-03-19T22:00:50.203Z,33.30
2023-03-19T22:03:19.502Z,33.22
2023-03-19T22:05:49.669Z,31.65
2023-03-19T22:08:18.217Z,29.10
2023-03-19T22:10:45.381Z,33.78
2023-03-19T22:13:21.610Z,30.75
2023-03-19T22:15:50.560Z,32.63
2023-03-19T22:18:17.313Z,28.20
2023-03-19T22:20:44.842Z,33.55
2023-03-19T22:23:12.056Z,26.77
2023-03-19T22:25:42.291Z,27.48
2023-03-19T22:28:25.356Z,25.00
2023-03-19T22:30:52.031Z,28.20
2023-03-19T22:33:21.502Z,33.42
2023-03-19T22:35:51.617Z,30.67
2023-03-19T22:38:19.414Z,26.65
2023-03-19T22:40:50.511Z,30.92
2023-03-19T22:43:35.540Z,29.75
2023-03-19T22:46:05.470Z,28.63
2023-03-19T22:48:32.203Z,29.83
2023-03-19T22:50:58.996Z,28.27
2023-03-19T22:53:31.357Z,26.65
2023-03-19T22:55:58.954Z,27.23
2023-03-19T22:58:25.807Z,27.98
2023-03-19T23:00:53.028Z,30.25
2023-03-19T23:03:25.093Z,33.00
2023-03-19T23:05:57.722Z,30.02
2023-03-19T23:08:24.324Z,26.40
2023-03-19T23:10:51.843Z,29.92
2023-03-19T23:13:18.485Z,33.58
2023-03-19T23:15:45.784Z,26.63
2023-03-19T23:18:17.418Z,26.98
2023-03-19T23:20:44.689Z,32.05
2023-03-19T23:23:13.522Z,34.33
2023-03-19T23:25:41.384Z,30.25
2023-03-19T23:28:34.464Z,27.98
2023-03-19T23:31:02.970Z,31.23
2023-03-19T23:33:30.016Z,38.45
2023-03-19T23:35:56.705Z,31.88
2023-03-19T23:38:23.430Z,39.05
2023-03-19T23:40:51.316Z,42.20
2023-03-19T23:43:25.021Z,42.80
2023-03-19T23:45:52.857Z,41.95
2023-03-19T23:48:34.635Z,55.45
2023-03-19T23:51:01.346Z,51.83
2023-03-19T23:53:29.606Z,49.75
2023-03-19T23:56:02.900Z,49.85
2023-03-19T23:58:42.605Z,43.08
